createdAt,value
2023-02-22T00:01:50.976Z,5.73
2023-02-22T00:04:21.218Z,6.03
2023-02-22T00:06:50.753Z,6.20
2023-02-22T00:09:20.742Z,6.10
2023-02-22T00:11:50.237Z,6.13
2023-02-22T00:14:20.283Z,6.73
2023-02-22T00:16:48.025Z,6.97
2023-02-22T00:19:15.719Z,6.50
2023-02-22T00:21:44.833Z,6.30
2023-02-22T00:24:23.150Z,6.90
2023-02-22T00:26:55.499Z,6.10
2023-02-22T00:29:24.044Z,6.60
2023-02-22T00:31:51.902Z,7.63
2023-02-22T00:34:19.507Z,6.83
2023-02-22T00:36:47.722Z,6.67
2023-02-22T00:39:15.473Z,7.03
2023-02-22T00:41:43.314Z,6.73
2023-02-22T00:44:12.243Z,7.67
2023-02-22T00:46:39.848Z,6.87
2023-02-22T00:49:07.989Z,7.37
2023-02-22T00:51:35.598Z,6.93
2023-02-22T00:54:03.137Z,6.67
2023-02-22T00:56:30.769Z,7.33
2023-02-22T00:58:58.326Z,7.10
2023-02-22T01:01:27.451Z,6.57
2023-02-22T01:03:55.033Z,7.10
2023-02-22T01:06:23.673Z,6.97
2023-02-22T01:08:51.267Z,6.63
2023-02-22T01:11:19.029Z,6.80
2023-02-22T01:13:46.695Z,7.00
2023-02-22T01:16:14.998Z,6.93
2023-02-22T01:18:44.098Z,7.43
2023-02-22T01:21:11.700Z,6.60
2023-02-22T01:23:39.296Z,6.50
2023-02-22T01:26:31.709Z,6.93
2023-02-22T01:28:59.275Z,6.73
2023-02-22T01:31:27.995Z,7.30
2023-02-22T01:33:56.926Z,6.33
2023-02-22T01:36:24.536Z,6.50
2023-02-22T01:38:52.044Z,6.60
2023-02-22T01:41:20.079Z,5.70
2023-02-22T01:43:47.641Z,6.10
2023-02-22T01:46:22.850Z,5.93
2023-02-22T01:48:54.483Z,5.60
2023-02-22T01:51:26.738Z,6.60
2023-02-22T01:53:58.374Z,7.10
2023-02-22T01:56:28.677Z,5.93
2023-02-22T01:58:59.882Z,5.73
2023-02-22T02:01:27.627Z,7.20
2023-02-22T02:03:58.614Z,7.17
2023-02-22T02:06:29.439Z,7.20
2023-02-22T02:09:03.753Z,6.97
2023-02-22T02:11:32.229Z,7.20
2023-02-22T02:14:00.155Z,7.73
2023-02-22T02:16:41.328Z,8.20
2023-02-22T02:19:20.271Z,7.00
2023-02-22T02:22:12.507Z,6.80
2023-02-22T02:25:22.628Z,7.30
2023-02-22T02:28:13.694Z,6.70
2023-02-22T02:31:18.183Z,6.47
2023-02-22T02:33:52.818Z,6.67
2023-02-22T02:36:32.726Z,6.73
2023-02-22T02:39:07.343Z,7.10
2023-02-22T02:41:37.665Z,6.37
2023-02-22T02:44:12.468Z,6.90
2023-02-22T02:46:47.752Z,6.67
2023-02-22T02:49:22.165Z,5.90
2023-02-22T02:51:53.962Z,5.53
2023-02-22T02:54:23.335Z,6.33
2023-02-22T02:56:51.899Z,6.27
2023-02-22T02:59:28.447Z,6.60
2023-02-22T03:02:13.224Z,6.33
2023-02-22T03:04:54.174Z,6.60
2023-02-22T03:07:32.751Z,6.10
2023-02-22T03:10:15.946Z,5.80
2023-02-22T03:12:52.663Z,5.57
2023-02-22T03:15:27.132Z,6.23
2023-02-22T03:18:03.179Z,6.07
2023-02-22T03:20:43.142Z,6.67
2023-02-22T03:23:17.650Z,6.80
2023-02-22T03:25:51.215Z,6.70
2023-02-22T03:28:22.478Z,6.57
2023-02-22T03:30:54.507Z,6.47
2023-02-22T03:33:33.622Z,6.17
2023-02-22T03:36:10.480Z,6.67
2023-02-22T03:38:40.787Z,6.90
2023-02-22T03:41:10.730Z,6.17
2023-02-22T03:43:42.798Z,5.87
2023-02-22T03:46:12.143Z,6.93
2023-02-22T03:48:47.520Z,6.10
2023-02-22T03:51:18.067Z,5.90
2023-02-22T03:53:46.048Z,6.80
2023-02-22T03:56:21.069Z,7.00
2023-02-22T03:58:50.182Z,6.27
2023-02-22T04:01:19.934Z,6.10
2023-02-22T04:03:47.549Z,6.23
2023-02-22T04:06:16.438Z,7.17
2023-02-22T04:08:44.026Z,6.57
2023-02-22T04:11:11.561Z,7.53
2023-02-22T04:13:39.312Z,6.70
2023-02-22T04:16:07.437Z,7.83
2023-02-22T04:18:35.056Z,7.27
2023-02-22T04:21:02.787Z,8.00
2023-02-22T04:23:31.817Z,8.47
2023-02-22T04:25:59.380Z,7.03
2023-02-22T04:28:27.274Z,7.70
2023-02-22T04:30:54.822Z,7.50
2023-02-22T04:33:22.377Z,8.20
2023-02-22T04:35:51.763Z,8.13
2023-02-22T04:38:19.417Z,8.83
2023-02-22T04:40:48.510Z,7.67
2023-02-22T04:43:16.076Z,7.77
2023-02-22T04:45:43.606Z,7.53
2023-02-22T04:48:11.554Z,7.87
2023-02-22T04:50:39.247Z,7.93
2023-02-22T04:53:06.912Z,7.90
2023-02-22T04:55:35.029Z,8.53
2023-02-22T04:58:04.237Z,8.90
2023-02-22T05:00:31.798Z,7.77
2023-02-22T05:02:59.445Z,8.33
2023-02-22T05:05:26.989Z,7.73
2023-02-22T05:07:54.640Z,8.10
2023-02-22T05:10:22.252Z,8.13
2023-02-22T05:12:49.782Z,8.40
2023-02-22T05:15:21.559Z,8.40
2023-02-22T05:17:49.083Z,7.97
2023-02-22T05:20:24.542Z,7.20
2023-02-22T05:22:52.072Z,6.93
2023-02-22T05:25:21.249Z,7.53
2023-02-22T05:27:52.489Z,7.20
2023-02-22T05:30:23.654Z,6.93
2023-02-22T05:32:51.509Z,6.80
2023-02-22T05:35:19.558Z,6.80
2023-02-22T05:37:47.489Z,6.00
2023-02-22T05:40:15.665Z,5.53
2023-02-22T05:42:43.207Z,5.80
2023-02-22T05:45:13.901Z,6.57
2023-02-22T05:47:43.243Z,5.27
2023-02-22T05:50:11.668Z,6.60
2023-02-22T05:52:39.486Z,6.07
2023-02-22T05:55:08.039Z,5.40
2023-02-22T05:57:35.782Z,5.40
2023-02-22T06:00:05.167Z,6.00
2023-02-22T06:02:32.785Z,6.27
2023-02-22T06:05:01.810Z,6.37
2023-02-22T06:07:29.340Z,5.83
2023-02-22T06:09:57.077Z,6.20
2023-02-22T06:12:25.265Z,6.23
2023-02-22T06:14:52.792Z,6.17
2023-02-22T06:17:20.752Z,6.40
2023-02-22T06:19:48.282Z,7.27
2023-02-22T06:22:19.731Z,6.43
2023-02-22T06:24:47.533Z,7.07
2023-02-22T06:27:15.104Z,5.83
2023-02-22T06:29:46.319Z,6.10
2023-02-22T06:32:14.122Z,7.00
2023-02-22T06:34:41.900Z,5.73
2023-02-22T06:37:09.414Z,6.77
2023-02-22T06:39:38.580Z,6.90
2023-02-22T06:42:06.697Z,6.73
2023-02-22T06:44:34.264Z,6.70
2023-02-22T06:47:01.825Z,6.23
2023-02-22T06:49:29.504Z,7.40
2023-02-22T06:51:57.182Z,7.10
2023-02-22T06:54:24.819Z,7.87
2023-02-22T06:56:53.772Z,6.90
2023-02-22T06:59:21.290Z,6.73
2023-02-22T07:01:48.986Z,7.37
2023-02-22T07:04:16.802Z,7.40
2023-02-22T07:06:46.870Z,6.30
2023-02-22T07:09:14.941Z,7.07
2023-02-22T07:11:42.563Z,7.33
2023-02-22T07:14:11.552Z,7.50
2023-02-22T07:16:39.198Z,6.23
2023-02-22T07:19:06.716Z,7.13
2023-02-22T07:21:34.314Z,6.97
2023-02-22T07:24:03.912Z,7.00
2023-02-22T07:26:32.693Z,7.53
2023-02-22T07:29:00.212Z,7.20
2023-02-22T07:31:35.306Z,7.33
2023-02-22T07:34:02.876Z,7.17
2023-02-22T07:36:30.449Z,6.80
2023-02-22T07:38:58.037Z,6.27
2023-02-22T07:41:26.371Z,7.07
2023-02-22T07:43:53.910Z,7.83
2023-02-22T07:46:21.490Z,14.43
2023-02-22T07:48:50.449Z,15.57
2023-02-22T07:51:20.627Z,10.47
2023-02-22T07:53:49.824Z,9.23
2023-02-22T07:56:18.247Z,8.37
2023-02-22T07:58:45.845Z,7.50
2023-02-22T08:01:14.322Z,7.63
2023-02-22T08:03:42.504Z,6.73
2023-02-22T08:06:11.399Z,6.40
2023-02-22T08:08:38.952Z,6.17
2023-02-22T08:11:06.668Z,6.27
2023-02-22T08:13:37.447Z,6.23
2023-02-22T08:16:05.587Z,5.47
2023-02-22T08:18:33.160Z,5.37
2023-02-22T08:21:00.750Z,5.47
2023-02-22T08:23:29.725Z,5.33
2023-02-22T08:25:57.789Z,5.40
2023-02-22T08:28:26.243Z,5.17
2023-02-22T08:30:53.977Z,5.00
2023-02-22T08:33:22.021Z,5.37
2023-02-22T08:35:50.232Z,4.87
2023-02-22T08:38:20.191Z,5.40
2023-02-22T08:40:49.842Z,5.13
2023-02-22T08:43:17.911Z,4.97
2023-02-22T08:45:46.367Z,5.03
2023-02-22T08:48:15.064Z,5.47
2023-02-22T08:50:44.198Z,5.00
2023-02-22T08:53:14.514Z,4.60
2023-02-22T08:55:42.846Z,4.60
2023-02-22T08:58:12.474Z,4.80
2023-02-22T09:00:41.438Z,5.63
2023-02-22T09:03:10.799Z,5.10
2023-02-22T09:05:38.586Z,5.47
2023-02-22T09:08:06.228Z,5.40
2023-02-22T09:10:35.334Z,5.17
2023-02-22T09:13:04.015Z,4.70
2023-02-22T09:15:34.228Z,5.03
2023-02-22T09:18:01.859Z,5.03
2023-02-22T09:20:29.936Z,4.77
2023-02-22T09:22:57.772Z,5.70
2023-02-22T09:25:25.316Z,5.00
2023-02-22T09:27:54.294Z,4.67
2023-02-22T09:30:24.892Z,4.77
2023-02-22T09:32:56.622Z,4.23
2023-02-22T09:35:27.032Z,4.73
2023-02-22T09:37:56.148Z,4.13
2023-02-22T09:40:29.907Z,4.07
2023-02-22T09:43:16.730Z,3.57
2023-02-22T09:45:58.224Z,3.87
2023-02-22T09:48:27.319Z,4.20
2023-02-22T09:51:01.214Z,4.10
2023-02-22T09:53:36.312Z,3.90
2023-02-22T09:56:10.441Z,3.90
2023-02-22T09:58:42.998Z,3.60
2023-02-22T10:01:23.863Z,3.80
2023-02-22T10:04:01.370Z,3.87
2023-02-22T10:06:29.664Z,4.07
2023-02-22T10:09:00.872Z,3.67
2023-02-22T10:11:47.327Z,4.17
2023-02-22T10:14:43.599Z,3.87
2023-02-22T10:17:20.736Z,4.10
2023-02-22T10:20:06.172Z,4.20
2023-02-22T10:22:43.739Z,3.73
2023-02-22T10:25:14.564Z,3.80
2023-02-22T10:27:48.930Z,3.50
2023-02-22T10:30:25.401Z,4.00
2023-02-22T10:32:59.717Z,4.23
2023-02-22T10:35:30.959Z,4.67
2023-02-22T10:38:05.474Z,4.70
2023-02-22T10:40:33.306Z,5.10
2023-02-22T10:43:06.445Z,4.70
2023-02-22T10:45:36.985Z,5.43
2023-02-22T10:48:11.472Z,5.37
2023-02-22T10:50:43.179Z,4.63
2023-02-22T10:53:11.561Z,4.93
2023-02-22T10:56:06.561Z,4.93
2023-02-22T10:58:42.291Z,5.20
2023-02-22T11:01:20.656Z,5.53
2023-02-22T11:03:58.331Z,5.30
2023-02-22T11:06:27.446Z,5.20
2023-02-22T11:09:06.548Z,5.43
2023-02-22T11:11:34.959Z,5.63
2023-02-22T11:14:02.496Z,6.20
2023-02-22T11:16:34.145Z,6.23
2023-02-22T11:19:03.868Z,6.63
2023-02-22T11:21:33.792Z,6.40
2023-02-22T11:24:03.976Z,7.13
2023-02-22T11:26:40.697Z,6.80
2023-02-22T11:29:18.861Z,7.00
2023-02-22T11:31:49.209Z,6.47
2023-02-22T11:34:36.412Z,6.73
2023-02-22T11:37:30.590Z,6.93
2023-02-22T11:40:19.637Z,7.23
2023-02-22T11:42:47.793Z,7.30
2023-02-22T11:45:20.706Z,8.03
2023-02-22T11:47:54.972Z,6.97
2023-02-22T11:50:28.985Z,7.37
2023-02-22T11:53:22.052Z,7.73
2023-02-22T11:56:16.136Z,8.37
2023-02-22T11:58:50.193Z,8.20
2023-02-22T12:01:27.632Z,8.17
2023-02-22T12:04:18.587Z,8.33
2023-02-22T12:06:55.458Z,7.93
2023-02-22T12:09:34.003Z,8.73
2023-02-22T12:12:12.386Z,8.60
2023-02-22T12:14:48.581Z,8.20
2023-02-22T12:17:32.360Z,8.30
2023-02-22T12:20:06.846Z,9.90
2023-02-22T12:22:37.850Z,9.53
2023-02-22T12:25:19.505Z,9.93
2023-02-22T12:27:50.998Z,9.90
2023-02-22T12:30:24.793Z,10.17
2023-02-22T12:32:56.172Z,10.73
2023-02-22T12:35:27.443Z,10.70
2023-02-22T12:38:04.048Z,10.47
2023-02-22T12:40:38.510Z,11.17
2023-02-22T12:43:16.560Z,10.73
2023-02-22T12:45:50.400Z,11.20
2023-02-22T12:48:28.622Z,12.43
2023-02-22T12:51:00.793Z,11.37
2023-02-22T12:53:34.231Z,12.30
2023-02-22T12:56:17.467Z,11.73
2023-02-22T12:58:54.059Z,11.87
2023-02-22T13:01:24.018Z,11.30
2023-02-22T13:03:51.636Z,11.20
2023-02-22T13:06:33.039Z,11.67
2023-02-22T13:09:12.206Z,10.47
2023-02-22T13:11:49.602Z,10.03
2023-02-22T13:14:35.999Z,10.10
2023-02-22T13:17:10.762Z,11.20
2023-02-22T13:19:45.734Z,11.10
2023-02-22T13:22:19.971Z,10.70
2023-02-22T13:25:00.637Z,10.57
2023-02-22T13:27:36.461Z,11.13
2023-02-22T13:30:06.957Z,12.03
2023-02-22T13:32:52.794Z,11.10
2023-02-22T13:35:42.432Z,11.67
2023-02-22T13:38:36.134Z,11.20
2023-02-22T13:41:23.120Z,10.40
2023-02-22T13:44:26.903Z,11.13
2023-02-22T13:47:28.299Z,10.10
2023-02-22T13:50:18.093Z,10.53
2023-02-22T13:52:48.257Z,11.10
2023-02-22T13:55:20.790Z,11.53
2023-02-22T13:57:51.600Z,10.87
2023-02-22T14:00:24.317Z,11.47
2023-02-22T14:03:02.157Z,10.07
2023-02-22T14:05:50.851Z,10.20
2023-02-22T14:08:48.794Z,10.80
2023-02-22T14:11:45.642Z,10.83
2023-02-22T14:14:17.216Z,10.40
2023-02-22T14:17:06.484Z,10.93
2023-02-22T14:19:34.035Z,10.90
2023-02-22T14:22:04.088Z,10.83
2023-02-22T14:24:43.673Z,10.43
2023-02-22T14:27:12.778Z,11.30
2023-02-22T14:29:53.621Z,10.80
2023-02-22T14:32:32.629Z,11.20
2023-02-22T14:35:06.309Z,10.93
2023-02-22T14:37:40.787Z,10.33
2023-02-22T14:40:19.276Z,10.83
2023-02-22T14:42:50.940Z,10.13
2023-02-22T14:45:24.795Z,10.40
2023-02-22T14:48:03.757Z,10.37
2023-02-22T14:50:44.050Z,10.20
2023-02-22T14:53:21.595Z,9.40
2023-02-22T14:55:56.431Z,9.87
2023-02-22T14:58:30.353Z,9.50
2023-02-22T15:00:58.243Z,9.40
2023-02-22T15:03:37.171Z,9.33
2023-02-22T15:06:07.448Z,9.83
2023-02-22T15:08:41.648Z,9.57
2023-02-22T15:11:20.550Z,8.80
2023-02-22T15:13:51.860Z,9.10
2023-02-22T15:16:21.096Z,9.07
2023-02-22T15:18:54.103Z,8.70
2023-02-22T15:21:24.887Z,9.13
2023-02-22T15:23:54.547Z,8.90
2023-02-22T15:26:27.806Z,8.93
2023-02-22T15:28:56.763Z,8.47
2023-02-22T15:31:28.629Z,8.83
2023-02-22T15:33:57.607Z,9.43
2023-02-22T15:36:30.828Z,10.00
2023-02-22T15:38:58.436Z,9.93
2023-02-22T15:41:31.723Z,9.47
2023-02-22T15:44:14.133Z,10.07
2023-02-22T15:46:49.333Z,10.07
2023-02-22T15:49:24.499Z,10.27
2023-02-22T15:52:04.049Z,10.10
2023-02-22T15:54:38.513Z,9.23
2023-02-22T15:57:06.126Z,9.07
2023-02-22T15:59:34.980Z,9.07
2023-02-22T16:02:02.590Z,9.40
2023-02-22T16:04:32.303Z,9.27
2023-02-22T16:07:16.675Z,8.90
2023-02-22T16:09:49.526Z,9.17
2023-02-22T16:12:29.433Z,9.67
2023-02-22T16:14:57.949Z,10.00
2023-02-22T16:17:31.670Z,9.10
2023-02-22T16:20:01.769Z,8.70
2023-02-22T16:22:33.806Z,9.23
2023-02-22T16:25:17.016Z,9.17
2023-02-22T16:27:48.279Z,9.07
2023-02-22T16:30:26.056Z,9.37
2023-02-22T16:32:55.422Z,9.00
2023-02-22T16:35:28.562Z,8.67
2023-02-22T16:38:00.337Z,9.33
2023-02-22T16:40:32.397Z,8.60
2023-02-22T16:43:02.454Z,9.00
2023-02-22T16:45:30.349Z,9.40
2023-02-22T16:47:58.077Z,9.37
2023-02-22T16:50:27.330Z,8.93
2023-02-22T16:52:58.518Z,9.70
2023-02-22T16:55:26.578Z,9.13
2023-02-22T16:57:57.238Z,9.40
2023-02-22T17:00:31.964Z,8.90
2023-02-22T17:02:59.629Z,9.20
2023-02-22T17:05:28.545Z,9.33
2023-02-22T17:07:56.185Z,9.33
2023-02-22T17:10:23.788Z,8.73
2023-02-22T17:12:53.717Z,8.67
2023-02-22T17:15:24.525Z,8.20
2023-02-22T17:17:53.161Z,8.63
2023-02-22T17:20:29.907Z,8.77
2023-02-22T17:23:00.304Z,9.10
2023-02-22T17:25:31.795Z,8.17
2023-02-22T17:27:59.481Z,8.60
2023-02-22T17:30:28.032Z,8.50
2023-02-22T17:33:03.619Z,9.33
2023-02-22T17:35:36.301Z,8.40
2023-02-22T17:38:07.020Z,9.10
2023-02-22T17:40:35.639Z,8.60
2023-02-22T17:43:03.837Z,8.50
2023-02-22T17:45:31.763Z,8.37
2023-02-22T17:47:59.661Z,8.60
2023-02-22T17:50:27.967Z,8.80
2023-02-22T17:52:55.648Z,9.00
2023-02-22T17:55:24.545Z,9.03
2023-02-22T17:57:58.200Z,8.67
2023-02-22T18:00:32.978Z,8.17
2023-02-22T18:03:03.611Z,8.87
2023-02-22T18:05:32.963Z,8.90
2023-02-22T18:08:01.159Z,9.27
2023-02-22T18:10:30.055Z,8.47
2023-02-22T18:13:01.875Z,8.60
2023-02-22T18:15:30.731Z,8.90
2023-02-22T18:17:58.274Z,8.67
2023-02-22T18:20:31.033Z,9.60
2023-02-22T18:22:59.979Z,9.60
2023-02-22T18:25:28.164Z,9.57
2023-02-22T18:27:57.095Z,9.10
2023-02-22T18:30:25.288Z,10.30
2023-02-22T18:32:52.968Z,10.17
2023-02-22T18:35:20.520Z,10.33
2023-02-22T18:37:48.077Z,10.20
2023-02-22T18:40:18.905Z,9.23
2023-02-22T18:42:47.547Z,10.07
2023-02-22T18:45:17.210Z,9.23
2023-02-22T18:47:45.504Z,10.23
2023-02-22T18:50:13.846Z,10.20
2023-02-22T18:52:45.838Z,10.37
2023-02-22T18:55:14.560Z,10.53
2023-02-22T18:57:42.715Z,10.23
2023-02-22T19:00:13.092Z,10.50
2023-02-22T19:02:43.483Z,10.37
2023-02-22T19:05:11.802Z,10.73
2023-02-22T19:07:40.193Z,10.97
2023-02-22T19:10:08.274Z,10.57
2023-02-22T19:12:35.830Z,11.47
2023-02-22T19:15:03.497Z,10.93
2023-02-22T19:17:32.516Z,10.23
2023-02-22T19:20:01.574Z,10.70
2023-02-22T19:22:32.721Z,11.07
2023-02-22T19:25:01.366Z,10.77
2023-02-22T19:27:30.466Z,10.37
2023-02-22T19:29:58.475Z,10.63
2023-02-22T19:32:26.723Z,11.07
2023-02-22T19:35:01.872Z,10.67
2023-02-22T19:37:34.081Z,9.50
2023-02-22T19:40:02.772Z,9.73
2023-02-22T19:42:30.797Z,10.50
2023-02-22T19:44:58.345Z,11.27
2023-02-22T19:47:25.882Z,11.77
2023-02-22T19:49:53.412Z,11.03
2023-02-22T19:52:21.099Z,12.13
2023-02-22T19:54:50.677Z,11.67
2023-02-22T19:57:18.418Z,11.47
2023-02-22T19:59:45.999Z,11.77
2023-02-22T20:02:14.172Z,11.60
2023-02-22T20:04:41.828Z,12.23
2023-02-22T20:07:09.472Z,11.30
2023-02-22T20:09:39.551Z,11.97
2023-02-22T20:12:08.930Z,11.10
2023-02-22T20:14:36.535Z,11.07
2023-02-22T20:17:04.794Z,11.33
2023-02-22T20:19:32.358Z,11.07
2023-02-22T20:22:00.262Z,11.33
2023-02-22T20:24:28.269Z,10.90
2023-02-22T20:26:58.044Z,11.70
2023-02-22T20:29:30.397Z,11.73
2023-02-22T20:31:58.662Z,10.30
2023-02-22T20:34:31.267Z,10.13
2023-02-22T20:36:59.472Z,10.77
2023-02-22T20:39:27.389Z,11.23
2023-02-22T20:41:55.478Z,11.30
2023-02-22T20:44:23.316Z,11.17
2023-02-22T20:46:52.218Z,11.27
2023-02-22T20:49:21.615Z,11.30
2023-02-22T20:51:49.586Z,10.57
2023-02-22T20:54:18.125Z,10.23
2023-02-22T20:56:47.185Z,10.53
2023-02-22T20:59:17.403Z,9.03
2023-02-22T21:01:47.390Z,9.93
2023-02-22T21:04:16.838Z,10.33
2023-02-22T21:06:44.570Z,11.10
2023-02-22T21:09:14.644Z,9.50
2023-02-22T21:11:42.356Z,9.40
2023-02-22T21:14:12.329Z,10.57
2023-02-22T21:16:39.965Z,10.33
2023-02-22T21:19:08.456Z,10.87
2023-02-22T21:21:37.396Z,10.53
2023-02-22T21:24:05.175Z,10.03
2023-02-22T21:26:35.562Z,10.23
2023-02-22T21:29:05.198Z,10.00
2023-02-22T21:31:34.558Z,10.03
2023-02-22T21:34:04.003Z,10.07
2023-02-22T21:36:32.117Z,10.80
2023-02-22T21:39:08.354Z,10.67
2023-02-22T21:41:39.160Z,10.97
2023-02-22T21:44:08.093Z,10.47
2023-02-22T21:46:35.615Z,11.20
2023-02-22T21:49:03.304Z,11.10
2023-02-22T21:51:33.200Z,11.00
2023-02-22T21:54:03.518Z,10.87
2023-02-22T21:56:34.570Z,10.77
2023-02-22T21:59:04.945Z,10.70
2023-02-22T22:01:34.194Z,10.70
2023-02-22T22:04:02.761Z,10.30
2023-02-22T22:06:32.319Z,9.77
2023-02-22T22:09:01.141Z,10.40
2023-02-22T22:11:30.638Z,10.10
2023-02-22T22:13:59.654Z,10.07
2023-02-22T22:16:29.685Z,10.00
2023-02-22T22:18:58.121Z,10.67
2023-02-22T22:21:26.456Z,10.00
2023-02-22T22:23:55.990Z,10.87
2023-02-22T22:26:25.267Z,10.20
2023-02-22T22:28:57.354Z,9.93
2023-02-22T22:31:26.768Z,9.27
2023-02-22T22:33:55.286Z,9.33
2023-02-22T22:36:24.470Z,9.60
2023-02-22T22:38:52.813Z,8.57
2023-02-22T22:41:21.840Z,9.83
2023-02-22T22:43:52.327Z,8.20
2023-02-22T22:46:21.582Z,8.73
2023-02-22T22:48:49.381Z,8.97
2023-02-22T22:51:20.047Z,8.87
2023-02-22T22:53:49.682Z,8.70
2023-02-22T22:56:19.238Z,9.60
2023-02-22T22:58:49.648Z,8.67
2023-02-22T23:01:19.517Z,8.17
2023-02-22T23:03:54.910Z,8.70
2023-02-22T23:06:25.866Z,9.63
2023-02-22T23:09:00.129Z,8.97
2023-02-22T23:11:33.799Z,9.03
2023-02-22T23:14:04.454Z,9.83
2023-02-22T23:16:33.285Z,9.93
2023-02-22T23:19:02.200Z,9.67
2023-02-22T23:21:29.819Z,10.83
2023-02-22T23:23:58.758Z,10.93
2023-02-22T23:26:27.663Z,11.60
2023-02-22T23:28:57.354Z,11.87
2023-02-22T23:31:25.270Z,10.70
2023-02-22T23:33:52.878Z,10.60
2023-02-22T23:36:21.803Z,11.97
2023-02-22T23:38:49.945Z,12.77
2023-02-22T23:41:17.983Z,12.50
2023-02-22T23:43:46.515Z,11.80
2023-02-22T23:46:18.380Z,11.50
2023-02-22T23:48:51.591Z,10.40
2023-02-22T23:51:25.306Z,10.27
2023-02-22T23:53:55.639Z,9.70
2023-02-22T23:56:25.152Z,8.80
2023-02-22T23:58:52.715Z,8.80
